Neah Bay, WA (Traffic Separation Lighted Buoy) (46087)

Conditions for Monday

Daily
Weekly
Monthly
Marine Data Graph

Marine & Boating Location Search

Enter a coastal zip code for marine weather.

General Information

Location: 48.494 North -124.728 West
Buoy Type: 3-meter discus buoy
Buoy Hull: 3D16
Payload: AMPS payload
Owned by: NDBC
Windspeed: Measured by obtained from anemometer
Sea Surface: Measured by Intake

Weather and Wave Data

Time Temp Humidity Wind Dominant Wave Wind Wave Wave Swell Pressure
  Air
(°F)
Water
(°F)
  Dir Speed
(kts)
Speed
(mph)
Period
(sec)
Height
(ft)
Range
(ft)
Period
(sec)
Height
(ft)
Range
(ft)
Period
(sec)
Height
(ft)
Range
(ft)
Atmo.
(in)
Tend.
(in)
20:20 44 46 90 ESE 11.7 13.4 - - - - - - 29.58 -
20:50 43 46 97 ESE 11.7 13.4 11 3.61 exactly 3.6 3 1.64 0.82 - 2.46 11 3.28 2.46 - 4.10 29.59 +0.07
21:20 44 46 97 SSE 5.8 6.7 - - - - - - 29.60 -
21:50 46 46 100 SW 9.7 11.2 11 3.61 exactly 3.6 3 1.64 0.82 - 2.46 11 3.28 2.46 - 4.10 29.61 +0.06
22:20 46 46 99 WSW 13.6 15.7 - - - - - - 29.62 -
22:50 46 46 97 WSW 11.7 13.4 11 3.94 exactly 3.9 5 1.64 0.82 - 2.46 11 3.28 2.46 - 4.10 29.64 +0.07
23:20 46 46 96 West 13.6 15.7 - - - - - - 29.65 -
23:50 46 46 92 West 9.7 11.2 11 4.27 exactly 4.3 3 1.64 0.82 - 2.46 11 3.28 2.46 - 4.10 29.65 +0.06
00:20 46 46 91 West 7.8 8.9 - - - - - - 29.67 -
00:50 46 46 92 WSW 7.8 8.9 11 3.94 exactly 3.9 4 1.64 0.82 - 2.46 11 3.28 2.46 - 4.10 29.67 +0.06
01:20 46 46 93 SW 9.7 11.2 - - - - - - 29.67 -
01:50 46 46 91 SW 9.7 11.2 11 3.61 exactly 3.6 3 1.64 0.82 - 2.46 11 3.28 2.46 - 4.10 29.67 +0.03
02:20 46 46 96 SW 9.7 11.2 - - - - - - 29.67 -
02:50 47 46 95 SSW 15.6 17.9 11 3.61 exactly 3.6 5 1.64 0.82 - 2.46 11 3.28 2.46 - 4.10 29.65 -
03:20 47 46 95 SSW 19.4 22.4 - - - - - - 29.64 -
03:50 47 46 97 SSW 21.4 24.6 11 3.61 exactly 3.6 3 1.64 0.82 - 2.46 11 3.28 2.46 - 4.10 29.63 -0.04
04:20 47 47 95 SSW 19.4 22.4 - - - - - - 29.63 -
04:50 47 47 93 SSW 15.6 17.9 10 3.61 exactly 3.6 4 1.64 0.82 - 2.46 10 3.28 2.46 - 4.10 29.62 -0.04
05:20 47 47 96 SSW 15.6 17.9 - - - - - - 29.62 -
05:50 47 47 97 SSW 17.5 20.1 9 3.94 exactly 3.9 3 1.64 0.82 - 2.46 9 3.28 2.46 - 4.10 29.61 -0.04
06:20 48 47 90 SSW 17.5 20.1 - - - - - - 29.61 -
06:50 48 47 93 SSW 19.4 22.4 11 3.61 exactly 3.6 6 1.64 0.82 - 2.46 11 3.28 2.46 - 4.10 29.60 -0.03
07:20 47 47 94 SSW 19.4 22.4 - - - - - - 29.61 -
07:50 47 47 93 SSW 15.6 17.9 11 3.61 exactly 3.6 4 1.64 0.82 - 2.46 11 3.28 2.46 - 4.10 29.62 -
08:20 47 47 94 SSW 13.6 15.7 - - - - - - 29.63 -
08:50 47 47 95 SSW 15.6 17.9 14 3.94 exactly 3.9 5 1.64 0.82 - 2.46 14 3.28 2.46 - 4.10 29.63 +0.02
09:20 47 47 94 SSW 17.5 20.1 - - - - - - 29.63 -
09:50 47 47 93 SSW 17.5 20.1 9 4.59 exactly 4.6 6 1.64 0.82 - 2.46 9 3.28 2.46 - 4.10 29.64 +0.04
10:20 47 47 93 SSW 17.5 20.1 - - - - - - 29.65 -
10:50 47 47 91 SSW 17.5 20.1 13 4.27 exactly 4.3 4 1.64 0.82 - 2.46 13 3.28 2.46 - 4.10 29.65 +0.03
11:20 47 47 91 SSW 17.5 20.1 - - - - - - 29.65 -
11:50 47 47 92 SW 15.6 17.9 14 4.27 exactly 4.3 4 1.64 0.82 - 2.46 14 3.28 2.46 - 4.10 29.66 +0.03
12:20 46 47 97 SSW 15.6 17.9 - - - - - - 29.67 -
12:50 45 47 95 WNW 11.7 13.4 14 4.59 exactly 4.6 4 1.64 0.82 - 2.46 14 4.92 4.10 - 5.74 29.68 +0.04
13:20 44 47 95 NW 11.7 13.4 - - - - - - 29.69 -
13:50 44 47 84 NW 13.6 15.7 15 4.92 exactly 4.9 4 1.64 0.82 - 2.46 15 4.92 4.10 - 5.74 29.70 +0.04
14:20 44 47 84 WNW 13.6 15.7 - - - - - - 29.71 -
14:50 44 47 85 WNW 13.6 15.7 14 4.59 exactly 4.6 5 1.64 0.82 - 2.46 14 4.92 4.10 - 5.74 29.73 +0.06
15:20 43 47 87 WNW 15.6 17.9 - - - - - - 29.75 -
15:50 42 47 86 WNW 15.6 17.9 13 4.27 exactly 4.3 4 1.64 0.82 - 2.46 13 3.28 2.46 - 4.10 29.76 +0.08
16:20 43 47 76 WNW 13.6 15.7 - - - - - - 29.78 -
16:50 43 47 70 WNW 13.6 15.7 15 5.25 exactly 5.2 4 1.64 0.82 - 2.46 15 4.92 4.10 - 5.74 29.80 +0.10
17:20 43 47 67 WNW 13.6 15.7 - - - - - - 29.81 -
17:50 42 47 68 WNW 13.6 15.7 13 4.92 exactly 4.9 4 1.64 0.82 - 2.46 13 4.92 4.10 - 5.74 29.83 +0.10
18:20 42 47 65 WNW 13.6 15.7 - - - - - - 29.84 -
18:50 42 47 63 WNW 13.6 15.7 15 4.27 exactly 4.3 4 1.64 0.82 - 2.46 15 3.28 2.46 - 4.10 29.85 +0.09
19:20 42 47 62 NW 11.7 13.4 - - - - - - 29.86 -
19:50 41 47 60 WNW 11.7 13.4 14 4.59 exactly 4.6 5 1.64 0.82 - 2.46 14 3.28 2.46 - 4.10 29.86 +0.07
20:20 41 47 59 West 11.7 13.4 - - - - - - 29.88 -
20:50 41 47 55 WNW 7.8 8.9 13 4.92 exactly 4.9 4 1.64 0.82 - 2.46 13 4.92 4.10 - 5.74 29.89 +0.06
21:20 41 47 51 WNW 7.8 8.9 - - - - - - 29.90 -
21:50 41 47 48 WNW 5.8 6.7 13 4.59 exactly 4.6 4 1.64 0.82 - 2.46 13 4.92 4.10 - 5.74 29.91 +0.06
22:20 41 47 49 WNW 7.8 8.9 - - - - - - 29.91 -
22:50 41 47 50 WNW 5.8 6.7 12 5.58 exactly 5.6 4 1.64 0.82 - 2.46 12 4.92 4.10 - 5.74 29.92 +0.05
23:20 41 46 46 WNW 5.8 6.7 - - - - - - 29.92 -
23:50 41 46 51 WNW 5.8 6.7 13 5.58 exactly 5.6 4 1.64 0.82 - 2.46 13 4.92 4.10 - 5.74 29.93 +0.04
00:20 42 47 49 WNW 7.8 8.9 - - - - - - 29.94 -
00:50 41 46 50 WNW 7.8 8.9 13 5.91 exactly 5.9 4 1.64 0.82 - 2.46 13 4.92 4.10 - 5.74 29.95 +0.04
01:20 41 46 50 WNW 7.8 8.9 - - - - - - 29.95 -
01:50 41 46 53 NNW 9.7 11.2 13 6.89 exactly 6.9 4 1.64 0.82 - 2.46 13 6.56 5.74 - 7.38 29.96 +0.04
02:20 41 46 51 North 7.8 8.9 - - - - - - 29.95 -
02:50 40 46 52 North 7.8 8.9 11 6.89 exactly 6.9 4 1.64 0.82 - 2.46 11 6.56 5.74 - 7.38 29.95 +0.01
03:20 41 47 51 North 5.8 6.7 - - - - - - 29.94 -
03:50 41 47 50 North 5.8 6.7 13 6.89 exactly 6.9 4 1.64 0.82 - 2.46 13 6.56 5.74 - 7.38 29.95 -

Detailed Wave Spectra

Time Water Depth Wave Height Spectral Peak Period Average Wave Period Sampling Interval Wave Record
20:00 843 ft 4.00 ft 11.4 sec 6.7 sec 0.6 sec 2400 sec
21:00 843 ft 3.74 ft 10.8 sec 6.8 sec 0.6 sec 2400 sec
22:00 843 ft 3.71 ft 10.8 sec 7.7 sec 0.6 sec 2400 sec
23:00 843 ft 3.97 ft 10.8 sec 7.1 sec 0.6 sec 2400 sec
00:00 843 ft 4.20 ft 11.4 sec 6.3 sec 0.6 sec 2400 sec
01:00 843 ft 3.84 ft 10.8 sec 6.4 sec 0.6 sec 2400 sec
02:00 843 ft 3.51 ft 10.8 sec 6.0 sec 0.6 sec 2400 sec
03:00 843 ft 3.54 ft 10.8 sec 6.3 sec 0.6 sec 2400 sec
04:00 843 ft 3.54 ft 10.8 sec 4.9 sec 0.6 sec 2400 sec
05:00 843 ft 3.61 ft 10.0 sec 5.4 sec 0.6 sec 2400 sec
06:00 843 ft 3.84 ft 9.1 sec 5.5 sec 0.6 sec 2400 sec
07:00 843 ft 3.51 ft 10.8 sec 5.7 sec 0.6 sec 2400 sec
08:00 843 ft 3.58 ft 10.8 sec 5.3 sec 0.6 sec 2400 sec
09:00 843 ft 3.90 ft 13.8 sec 6.9 sec 0.6 sec 2400 sec
10:00 843 ft 4.49 ft 9.1 sec 6.7 sec 0.6 sec 2400 sec
11:00 843 ft 4.17 ft 12.9 sec 6.1 sec 0.6 sec 2400 sec
12:00 843 ft 4.30 ft 13.8 sec 6.0 sec 0.6 sec 2400 sec
13:00 843 ft 4.76 ft 13.8 sec 6.1 sec 0.6 sec 2400 sec
14:00 843 ft 4.99 ft 14.8 sec 6.6 sec 0.6 sec 2400 sec
15:00 843 ft 4.72 ft 13.8 sec 6.5 sec 0.6 sec 2400 sec
16:00 843 ft 4.30 ft 12.9 sec 6.3 sec 0.6 sec 2400 sec
17:00 843 ft 5.28 ft 14.8 sec 7.0 sec 0.6 sec 2400 sec
18:00 843 ft 5.09 ft 12.9 sec 6.8 sec 0.6 sec 2400 sec
19:00 843 ft 4.20 ft 14.8 sec 7.2 sec 0.6 sec 2400 sec
20:00 843 ft 4.53 ft 13.8 sec 6.9 sec 0.6 sec 2400 sec
21:00 843 ft 4.79 ft 12.9 sec 7.6 sec 0.6 sec 2400 sec
22:00 843 ft 4.69 ft 12.9 sec 8.4 sec 0.6 sec 2400 sec
23:00 843 ft 5.71 ft 12.1 sec 9.0 sec 0.6 sec 2400 sec
00:00 843 ft 5.71 ft 12.9 sec 8.8 sec 0.6 sec 2400 sec
01:00 843 ft 5.84 ft 12.9 sec 8.5 sec 0.6 sec 2400 sec
03:00 843 ft 6.79 ft 11.4 sec 8.7 sec 0.6 sec 2400 sec